Radja Hazard

Recruteur - Racing Genk
25 Avr 2027
Dimanche
Processus

Personnalité

Adaptabilité (5) Ambition (13) Controverse (14) Loyauté (17) Pression (5) Professionnalisme (13) Sportivité (17) Tempérament (14)

Profil

Style d'entraînement Démocratique
Diplôme National A
Détermination 12
Gestion des joueurs 10
Motivation 8
Discipline 11
Satisfaction professionnelle
50%
Fatigue
0%
Rôle Recruteur
Salaire 49.4K p/s
Contrat 14.03.2029

Performance

Comportement Normal
Efficacité de l'entraînement
19%
Développement des joueurs
55%
Prévention des blessures
55%
Mise en place tactique
25%

Événements récents

A évalué un joueur maintenant
A participé à une réunion de recrutement maintenant
A évalué un joueur maintenant
A évalué un joueur maintenant
A évalué un joueur 7j
A évalué un joueur 7j
A évalué un joueur 7j
A évalué un joueur 7j

Suivi en cours

83
Joueur Club Statut Capacité Confiance Observé Dernière observation Dernier vote
Felipe Augusto Zenit Actif 130 / 134 40% 1 24.04.2027 -
Figueiredo Alverca Actif 123 / 127 40% 1 24.04.2027 -
Josh Keeley Luton Town Actif 117 / 124 40% 2 22.04.2027 -
Filip Samurović Radnik Surdulica Actif 99 / 101 40% 1 22.04.2027 -
Tim Jabol-Folcarelli Trabzonspor Actif 131 / 131 40% 1 21.04.2027 -
Rodrigo Huescas FC Copenhagen Actif 145 / 133 40% 1 21.04.2027 -
Diego Costa Krasnodar Actif 133 / 136 40% 2 20.04.2027 -
Joel Ordóñez Club Brugge Actif 122 / 131 40% 1 20.04.2027 -
Tomáš Chorý Slavia Prague Actif 150 / 140 40% 2 19.04.2027 -
Yarden Shua Beitar Jerusalem Actif 139 / 125 40% 1 19.04.2027 -
Federico Bonazzoli Cremonese Actif 133 / 133 40% 2 18.04.2027 -
Joel Pohjanpalo Palermo Actif 139 / 131 40% 2 18.04.2027 -
Ki-Jana Hoever Sparta Prague Actif 121 / 129 40% 1 17.04.2027 -
Alexandr Chernikov Krasnodar Actif 138 / 133 40% 1 17.04.2027 -
Clayton Olympiacos Actif 143 / 130 40% 1 17.04.2027 -
Giovanni Simeone Torino Actif 142 / 134 40% 1 17.04.2027 -
Andrea Carboni Monza Actif 120 / 125 40% 2 15.04.2027 -
Yurii-Volodymyr Hereta Rukh Actif 102 / 100 40% 2 15.04.2027 -
Pedro Henrique Shakhtar Actif 141 / 133 40% 1 15.04.2027 -
Adam Hrdina Zbrojovka Brno Actif 103 / 110 40% 1 15.04.2027 -
Anthony Martial Club Brugge Actif 140 / 130 40% 2 12.04.2027 -
Paul Onuachu Trabzonspor Actif 126 / 131 40% 1 12.04.2027 -
Milad Nekounam Rah Ahan Actif 125 / 133 40% 1 11.04.2027 -
Ammar Ramadan DAC Dunajska Streda Actif 131 / 121 40% 1 11.04.2027 -
Kaio Jorge Cruzeiro Actif 147 / 136 40% 1 10.04.2027 -
Percy Erasmus SuperSport United Actif 135 / 119 40% 1 10.04.2027 -
Franko Kolić Istra 1961 Actif 119 / 112 40% 1 10.04.2027 -
Sławomir Abramowicz Jagiellonia Actif 122 / 125 40% 1 10.04.2027 -
Vinicius Tobias Shakhtar Actif 143 / 132 40% 1 08.04.2027 -
Luke Thomas Leicester City Actif 125 / 127 40% 1 08.04.2027 -
Mirlind Daku Spartak Moscow Actif 123 / 128 40% 1 08.04.2027 -
Jefferson Martinez Cortulua Actif 138 / 135 40% 1 07.04.2027 -
Marcus Holmgren Pedersen Olympiacos Actif 135 / 136 40% 2 05.04.2027 -
Freddie Potts Club Brugge Actif 127 / 129 40% 1 05.04.2027 -
Yuki Kakita FC Copenhagen Actif 116 / 127 40% 1 04.04.2027 -
Marco Pompetti Padova Actif 129 / 128 40% 2 02.04.2027 -
Marlon Gomes Shakhtar Actif 125 / 140 40% 4 31.03.2027 -
Kaveh Mohammadi Padideh Actif 143 / 124 40% 1 31.03.2027 -
Achraf Bencharki Al Ahly Actif 143 / 119 40% 1 29.03.2027 -
Luka Jović AEK Actif 135 / 134 40% 1 29.03.2027 -
Amir Hossein Hosseinzadeh Tractor Actif 140 / 128 40% 1 28.03.2027 -
Chris Ramos Botafogo Actif 128 / 128 40% 1 28.03.2027 -
Luis Vázquez Birmingham Actif 121 / 130 40% 1 26.03.2027 -
Alexey Miranchuk Newcastle United Actif 149 / 139 40% 1 26.03.2027 -
Oleksandr Saputin Zorya Actif 119 / 118 40% 1 25.03.2027 -
William Rovida Pro Patria Actif 109 / 108 40% 2 24.03.2027 -
Maicon Levski Actif 137 / 122 40% 2 24.03.2027 -
Daniil Khudyakov Sturm Graz Actif 117 / 125 40% 2 24.03.2027 -
Luciano Juba Bahia Actif 128 / 134 40% 1 23.03.2027 -
Alessandro Bianco Modena Actif 118 / 134 40% 1 23.03.2027 -
Luther Billiat Ajax Cape Town Actif 131 / 135 40% 2 22.03.2027 -
Victor Torp Coventry City Actif 120 / 127 40% 1 21.03.2027 -
Denys Ihnatenko Livyi Bereh Actif 108 / 112 40% 1 21.03.2027 -
Matthieu Epolo Standard Liege Actif 120 / 124 40% 1 20.03.2027 -
Abdullah Juma Al Ahli Actif 127 / 140 40% 1 18.03.2027 -
Sergio Barlocco Trento Actif 105 / 112 40% 1 14.03.2027 -
Gabriel Sara Galatasaray Actif 141 / 142 40% 2 13.03.2027 -
Luka Lijeskić Radnicki 1923 Actif 115 / 114 40% 1 13.03.2027 -
Lorenzo Cordaro Pergolettese Actif 111 / 105 40% 1 13.03.2027 -
Matteo Lovato Padova Actif 121 / 130 40% 1 13.03.2027 -
Mohamed Ali Ben Romdhane Al Ahly Actif 138 / 134 40% 2 10.03.2027 -
Dion Lopy Al-Ittihad Actif 141 / 127 40% 1 10.03.2027 -
Deniz Ertaş Konyaspor Actif 117 / 126 40% 1 09.03.2027 -
Tom Booth Crewe Alexandra Actif 99 / 103 40% 1 09.03.2027 -
Souffian El Karouani Al-Qadisiyah Actif 119 / 128 40% 1 03.03.2027 -
Aiham Ousou Charleroi Actif 124 / 125 40% 1 02.03.2027 -
Mahamadou Doumbia Al-Ittihad Actif 139 / 135 40% 1 02.03.2027 -
Facundo Garcés Alavés Actif 123 / 129 40% 1 25.02.2027 -
Sampson Dweh Viktoria Plzen Actif 142 / 138 40% 1 25.02.2027 -
Nacer Tielemans Mouscron Actif 136 / 134 40% 2 23.02.2027 -
Thierry Rendall Correia Venezia Actif 141 / 137 40% 1 23.02.2027 -
Aleksa Terzić Frosinone Actif 128 / 128 40% 1 22.02.2027 -
Nail Umyarov Spartak Moscow Actif 123 / 128 40% 2 21.02.2027 -
Matteo Dams Club Brugge Actif 121 / 127 40% 1 20.02.2027 -
Bernardo Vital Jagiellonia Actif 120 / 128 40% 1 20.02.2027 -
Lorenzo Pirola Olympiacos Actif 141 / 135 40% 1 09.02.2027 -
Jelle Bataille Maccabi Haifa Actif 110 / 128 40% 1 09.02.2027 -
Festy Ebosele Basaksehir Actif 116 / 134 40% 1 06.02.2027 -
Hans Vanaken Club Brugge Actif 145 / 133 51% 1 03.01.2027 -
David Kalokoh Ajax Actif 112 / 121 40% 1 31.12.2026 -
Dom Ballard Leyton Orient Actif 107 / 122 40% 1 31.12.2026 -
Tom Rothe Union Berlin Actif 129 / 134 40% 1 04.08.2026 -
Killian Sardella Anderlecht Actif 126 / 122 40% 1 04.08.2026 -